03TX weather

M D K Field
Pearland, Texas, United States

Public forecast

Using degrees Fahrenheit for public forecast. Weather courtesy of forecast.io.

METAR (pilot weather report)

Closest report is William P Hobby Airport, 4.1 nm (7.6 km) NNE. Retrieved 2019/07/20 07:53 UTC (45 minutes ago):

KHOU 200753Z 18005KT 10SM FEW020 SCT250 27/24 A2996 RMK AO2 SLP149 T02720239

TAF (pilot weather forecast)

Closest forecast is William P Hobby Airport, 4.1 nm (7.6 km) NNE. Retrieved 2019/07/20 06:27 UTC (2 hours ago):

TAF KHOU 200524Z 2006/2106 16006KT P6SM FEW020 SCT250 FM201600 18011KT P6SM VCSH FEW025 SCT040 FM202100 16012KT P6SM FEW040 FM210200 18006KT P6SM FEW020 SCT250